createdAt,value
2022-10-31T00:02:20.808Z,61.80
2022-10-31T00:07:25.713Z,62.67
2022-10-31T00:12:29.110Z,57.10
2022-10-31T00:17:32.537Z,57.87
2022-10-31T00:22:37.326Z,59.14
2022-10-31T00:27:40.720Z,60.67
2022-10-31T00:32:44.225Z,61.96
2022-10-31T00:37:49.067Z,61.47
2022-10-31T00:42:53.288Z,64.04
2022-10-31T00:47:56.887Z,63.00
2022-10-31T00:53:04.368Z,66.79
2022-10-31T00:58:07.948Z,66.82
2022-10-31T01:03:11.659Z,66.33
2022-10-31T01:08:19.807Z,64.04
2022-10-31T01:13:24.463Z,63.63
2022-10-31T01:18:30.075Z,63.12
2022-10-31T01:23:35.405Z,63.41
2022-10-31T01:28:39.916Z,62.68
2022-10-31T01:33:43.360Z,62.09
2022-10-31T01:38:51.184Z,62.11
2022-10-31T01:43:55.968Z,61.91
2022-10-31T01:49:01.359Z,63.99
2022-10-31T01:54:08.984Z,63.61
2022-10-31T01:59:18.494Z,63.46
2022-10-31T02:04:25.956Z,62.33
2022-10-31T02:09:33.916Z,61.17
2022-10-31T02:14:39.835Z,60.72
2022-10-31T02:19:50.918Z,61.17
2022-10-31T02:25:05.366Z,61.76
2022-10-31T02:30:15.521Z,64.32
2022-10-31T02:35:27.768Z,68.68
2022-10-31T02:40:36.615Z,70.46
2022-10-31T02:46:03.669Z,72.15
2022-10-31T02:51:14.400Z,72.43
2022-10-31T02:56:19.069Z,71.56
2022-10-31T03:01:37.811Z,72.44
2022-10-31T03:06:48.891Z,70.95
2022-10-31T03:12:00.322Z,70.87
2022-10-31T03:17:08.275Z,71.16
2022-10-31T03:22:21.934Z,71.18
2022-10-31T03:27:27.547Z,71.75
2022-10-31T03:32:35.005Z,71.17
2022-10-31T03:37:44.988Z,72.00
2022-10-31T03:42:56.586Z,70.81
2022-10-31T03:48:01.938Z,71.38
2022-10-31T03:53:14.742Z,73.20
2022-10-31T03:58:24.647Z,72.08
2022-10-31T04:03:34.911Z,69.66
2022-10-31T04:08:47.991Z,69.38
2022-10-31T04:13:56.089Z,68.07
2022-10-31T04:19:00.165Z,68.06
2022-10-31T04:24:05.205Z,67.88
2022-10-31T04:29:08.668Z,68.25
2022-10-31T04:34:12.177Z,66.68
2022-10-31T04:39:17.011Z,67.25
2022-10-31T04:44:43.360Z,68.54
2022-10-31T04:49:46.948Z,68.96
2022-10-31T04:54:52.269Z,68.43
2022-10-31T05:00:25.045Z,67.72
2022-10-31T05:05:29.243Z,70.10
2022-10-31T05:10:40.169Z,68.98
2022-10-31T05:15:46.780Z,78.90
2022-10-31T05:20:58.449Z,66.83
2022-10-31T05:26:14.931Z,67.16
2022-10-31T05:31:18.990Z,66.33
2022-10-31T05:36:26.255Z,66.10
2022-10-31T05:41:59.364Z,63.65
2022-10-31T05:47:07.145Z,61.75
2022-10-31T05:52:36.230Z,61.72
2022-10-31T05:57:52.358Z,61.42
2022-10-31T06:03:02.406Z,59.62
2022-10-31T06:08:38.817Z,57.80
2022-10-31T06:13:48.653Z,55.67
2022-10-31T06:19:04.745Z,42.72
2022-10-31T06:24:10.564Z,41.78
2022-10-31T06:29:38.656Z,43.21
2022-10-31T06:34:49.165Z,42.04
2022-10-31T06:39:52.844Z,42.79
2022-10-31T06:45:00.276Z,47.14
2022-10-31T06:50:32.558Z,53.06
2022-10-31T06:55:36.168Z,62.71
2022-10-31T07:00:43.296Z,66.87
2022-10-31T07:05:46.837Z,66.46
2022-10-31T07:10:54.376Z,64.05
2022-10-31T07:16:04.582Z,63.43
2022-10-31T07:21:10.734Z,59.10
2022-10-31T07:26:19.445Z,56.75
2022-10-31T07:31:28.642Z,47.70
2022-10-31T07:36:39.054Z,40.50
2022-10-31T07:41:44.790Z,37.92
2022-10-31T07:46:51.762Z,37.27
2022-10-31T07:52:13.438Z,37.09
2022-10-31T07:57:38.719Z,38.99
2022-10-31T08:02:45.373Z,39.29
2022-10-31T08:08:10.804Z,38.74
2022-10-31T08:13:17.353Z,38.99
2022-10-31T08:18:25.735Z,37.39
2022-10-31T08:23:31.762Z,34.40
2022-10-31T08:28:37.876Z,32.51
2022-10-31T08:33:42.746Z,38.40
2022-10-31T08:39:05.015Z,40.04
2022-10-31T08:44:10.826Z,40.58
2022-10-31T08:49:18.248Z,49.02
2022-10-31T08:54:21.978Z,54.21
2022-10-31T08:59:33.441Z,51.31
2022-10-31T09:04:52.846Z,50.35
2022-10-31T09:09:57.472Z,51.46
2022-10-31T09:15:03.663Z,46.41
2022-10-31T09:20:22.861Z,45.77
2022-10-31T09:25:30.158Z,43.04
2022-10-31T09:31:09.036Z,40.52
2022-10-31T09:36:28.704Z,41.05
2022-10-31T09:41:41.822Z,42.29
2022-10-31T09:46:54.678Z,42.33
2022-10-31T09:57:26.229Z,46.44
2022-10-31T10:02:36.915Z,55.47
2022-10-31T10:07:51.326Z,82.71
2022-10-31T10:13:39.696Z,48.87
2022-10-31T10:18:54.295Z,40.53
2022-10-31T10:24:10.813Z,38.86
2022-10-31T10:29:23.697Z,37.00
2022-10-31T10:34:33.377Z,37.26
2022-10-31T10:39:41.659Z,36.55
2022-10-31T10:45:06.722Z,35.88
2022-10-31T10:50:16.671Z,35.69
2022-10-31T10:55:38.270Z,36.45
2022-10-31T11:00:48.579Z,35.08
2022-10-31T11:05:53.537Z,34.04
2022-10-31T11:11:07.976Z,33.28
2022-10-31T11:16:16.053Z,35.97
2022-10-31T11:21:23.135Z,34.51
2022-10-31T11:26:28.009Z,32.36
2022-10-31T11:31:36.490Z,31.87
2022-10-31T11:36:46.045Z,31.71
2022-10-31T11:41:52.374Z,27.76
2022-10-31T11:46:58.997Z,30.89
2022-10-31T11:52:04.428Z,29.66
2022-10-31T11:57:23.622Z,26.08
2022-10-31T12:02:28.216Z,26.35
2022-10-31T12:07:32.469Z,26.94
2022-10-31T12:12:44.540Z,27.47
2022-10-31T12:17:54.784Z,23.07
2022-10-31T12:23:06.415Z,17.97
2022-10-31T12:28:39.004Z,16.95
2022-10-31T12:33:55.362Z,17.02
2022-10-31T12:39:06.674Z,19.53
2022-10-31T12:44:22.851Z,13.46
2022-10-31T12:49:37.247Z,12.27
2022-10-31T12:54:57.014Z,13.90
2022-10-31T13:00:04.591Z,13.68
2022-10-31T13:05:15.168Z,13.54
2022-10-31T13:10:22.449Z,15.55
2022-10-31T13:15:29.945Z,17.96
2022-10-31T13:20:37.190Z,18.01
2022-10-31T13:25:47.773Z,17.61
2022-10-31T13:30:53.873Z,19.08
2022-10-31T13:36:09.191Z,18.93
2022-10-31T13:41:24.803Z,16.83
2022-10-31T13:46:38.398Z,16.41
2022-10-31T13:51:41.952Z,17.57
2022-10-31T13:56:51.304Z,24.09
2022-10-31T14:02:01.250Z,34.78
2022-10-31T14:07:08.879Z,33.19
2022-10-31T14:12:24.654Z,33.19
2022-10-31T14:17:34.060Z,34.18
2022-10-31T14:22:42.896Z,75.59
2022-10-31T14:32:45.490Z,40.37
2022-10-31T14:38:04.683Z,45.28
2022-10-31T14:43:24.944Z,38.82
2022-10-31T14:48:50.335Z,43.53
2022-10-31T14:53:56.161Z,43.42
2022-10-31T14:59:02.251Z,41.54
2022-10-31T15:04:24.551Z,38.83
2022-10-31T15:09:29.975Z,37.03
2022-10-31T15:14:33.434Z,36.81
2022-10-31T15:19:44.466Z,38.06
2022-10-31T15:24:48.144Z,36.03
2022-10-31T15:29:54.757Z,40.82
2022-10-31T15:34:59.481Z,45.60
2022-10-31T15:40:08.977Z,46.34
2022-10-31T15:45:20.426Z,46.03
2022-10-31T15:50:30.455Z,46.85
2022-10-31T15:55:38.799Z,47.83
2022-10-31T16:00:42.670Z,46.38
2022-10-31T16:05:51.773Z,44.96
2022-10-31T16:10:55.591Z,46.15
2022-10-31T16:16:33.502Z,48.54
2022-10-31T16:21:30.551Z,53.15
2022-10-31T16:26:34.249Z,53.19
2022-10-31T16:31:39.158Z,52.89
2022-10-31T16:36:46.193Z,57.57
2022-10-31T16:41:57.639Z,53.83
2022-10-31T16:47:15.363Z,53.92
2022-10-31T16:52:20.803Z,55.51
2022-10-31T16:57:29.406Z,56.47
2022-10-31T17:02:35.389Z,53.99
2022-10-31T17:07:40.181Z,50.61
2022-10-31T17:12:45.933Z,52.42
2022-10-31T17:17:49.515Z,52.81
2022-10-31T17:22:57.708Z,55.50
2022-10-31T17:28:03.505Z,52.87
2022-10-31T17:33:12.000Z,53.99
2022-10-31T17:38:16.753Z,55.52
2022-10-31T17:43:19.995Z,59.54
2022-10-31T17:48:23.364Z,62.53
2022-10-31T17:53:29.160Z,61.76
2022-10-31T17:58:33.057Z,59.45
2022-10-31T18:03:38.964Z,59.08
2022-10-31T18:08:45.850Z,58.30
2022-10-31T18:13:56.122Z,58.22
2022-10-31T18:19:01.901Z,58.76
2022-10-31T18:24:10.434Z,59.69
2022-10-31T18:29:13.808Z,52.94
2022-10-31T18:34:17.087Z,55.42
2022-10-31T18:39:21.747Z,55.85
2022-10-31T18:44:25.846Z,55.32
2022-10-31T18:49:32.847Z,54.59
2022-10-31T18:54:39.885Z,53.85
2022-10-31T18:59:43.231Z,54.80
2022-10-31T19:04:46.510Z,51.93
2022-10-31T19:09:53.467Z,59.19
2022-10-31T19:14:58.147Z,74.76
2022-10-31T19:20:01.580Z,60.04
2022-10-31T19:25:11.000Z,59.03
2022-10-31T19:30:14.936Z,61.34
2022-10-31T19:35:18.302Z,63.75
2022-10-31T19:40:23.180Z,67.92
2022-10-31T19:45:26.543Z,75.77
2022-10-31T19:50:32.349Z,75.24
2022-10-31T19:55:42.027Z,87.64
2022-10-31T20:00:45.508Z,76.50
2022-10-31T20:05:50.239Z,77.92
2022-10-31T20:10:59.367Z,78.61
2022-10-31T20:16:04.255Z,76.77
2022-10-31T20:21:08.989Z,76.69
2022-10-31T20:26:15.751Z,69.25
2022-10-31T20:31:20.265Z,69.49
2022-10-31T20:36:28.788Z,65.77
2022-10-31T20:41:33.596Z,68.82
2022-10-31T20:46:36.951Z,67.50
2022-10-31T20:51:40.222Z,65.23
2022-10-31T20:56:47.565Z,63.14
2022-10-31T21:01:54.011Z,63.45
2022-10-31T21:06:57.459Z,62.94
2022-10-31T21:12:04.746Z,60.25
2022-10-31T21:17:08.518Z,58.87
2022-10-31T21:22:14.081Z,57.96
2022-10-31T21:27:18.774Z,60.56
2022-10-31T21:32:22.034Z,58.18
2022-10-31T21:37:25.320Z,55.54
2022-10-31T21:42:30.124Z,52.61
2022-10-31T21:47:35.797Z,53.34
2022-10-31T21:52:39.178Z,51.51
2022-10-31T21:57:43.930Z,52.02
2022-10-31T22:02:47.231Z,48.95
2022-10-31T22:07:50.510Z,49.43
2022-10-31T22:12:55.145Z,49.35
2022-10-31T22:17:58.550Z,50.43
2022-10-31T22:23:01.948Z,47.45
2022-10-31T22:28:08.858Z,48.34
2022-10-31T22:33:12.148Z,48.78
2022-10-31T22:38:15.451Z,49.82
2022-10-31T22:43:22.310Z,50.48
2022-10-31T22:48:25.595Z,48.58
2022-10-31T22:53:28.917Z,44.62
2022-10-31T22:58:34.512Z,47.21
2022-10-31T23:03:40.189Z,48.09
2022-10-31T23:08:46.703Z,48.25
2022-10-31T23:14:13.744Z,49.59
2022-10-31T23:19:18.699Z,51.12
2022-10-31T23:24:23.318Z,50.49
2022-10-31T23:29:27.941Z,50.20
2022-10-31T23:34:31.184Z,46.02
2022-10-31T23:39:34.456Z,41.95
2022-10-31T23:44:41.512Z,38.39
2022-10-31T23:49:45.014Z,35.62
2022-10-31T23:54:48.245Z,36.90
2022-10-31T23:59:52.883Z,36.87
